Time;durP1;ratioP1;P1;durP2;ratioP2;P2;SDS_P1;SDS_P2;PMS_P1;PMS_P2;Temp;Humidity;BMP_temperature;BMP_pressure;BME280_temperature;BME280_humidity;BME280_pressure;Samples;Min_cycle;Max_cycle;Signal;HPM_P1;HPM_P2
2022/07/06 00:00:32;;;;;;;4.65;1.30;;;15.10;99.90;;;;;;5076495;28;20043;-71
2022/07/06 00:02:57;;;;;;;7.97;1.58;;;15.00;99.90;;;;;;5058606;28;20045;-72
2022/07/06 00:05:23;;;;;;;5.53;1.63;;;15.00;99.90;;;;;;5058351;28;20052;-70
2022/07/06 00:07:48;;;;;;;7.35;1.33;;;15.00;99.90;;;;;;5076316;28;20044;-71
2022/07/06 00:10:14;;;;;;;4.13;1.40;;;15.00;99.90;;;;;;5075691;28;20040;-71
2022/07/06 00:12:40;;;;;;;2.28;0.95;;;15.00;99.90;;;;;;5058368;28;20135;-71
2022/07/06 00:15:05;;;;;;;6.53;1.55;;;15.00;99.90;;;;;;5076209;28;20055;-71
2022/07/06 00:17:31;;;;;;;2.83;1.33;;;15.00;99.90;;;;;;5058721;28;20127;-71
2022/07/06 00:19:57;;;;;;;1.60;0.88;;;15.00;99.90;;;;;;5058355;28;20045;-72
2022/07/06 00:22:22;;;;;;;4.28;1.38;;;14.90;99.90;;;;;;5058403;28;20052;-72
2022/07/06 00:24:48;;;;;;;2.78;1.23;;;14.90;99.90;;;;;;5069684;28;20495;-72
2022/07/06 00:27:13;;;;;;;3.45;1.40;;;14.90;99.90;;;;;;5072769;28;20117;-71
2022/07/06 00:29:43;;;;;;;2.85;1.17;;;14.80;99.90;;;;;;5075523;28;20055;-71
2022/07/06 00:32:10;;;;;;;1.63;0.95;;;14.80;99.90;;;;;;5058003;28;20056;-71
2022/07/06 00:34:35;;;;;;;2.13;1.00;;;14.70;99.90;;;;;;5058375;28;20090;-72
2022/07/06 00:37:01;;;;;;;3.55;1.20;;;14.80;99.90;;;;;;5075344;28;20087;-71
2022/07/06 00:39:29;;;;;;;2.40;1.15;;;14.80;99.90;;;;;;5074658;28;20044;-71
2022/07/06 00:41:55;;;;;;;6.35;1.35;;;14.80;99.90;;;;;;5075287;28;20040;-71
2022/07/06 00:44:21;;;;;;;5.65;1.45;;;14.80;99.90;;;;;;5057796;28;20052;-71
2022/07/06 00:46:46;;;;;;;2.85;1.17;;;14.80;99.90;;;;;;5057530;28;20054;-72
2022/07/06 00:50:13;;;;;;;1.88;0.90;;;14.80;99.90;;;;;;5058113;28;20129;-71
2022/07/06 00:51:59;;;;;;;2.50;1.20;;;14.70;99.90;;;;;;5047646;28;20551;-71
2022/07/06 00:54:25;;;;;;;3.33;1.15;;;14.70;99.90;;;;;;5044088;28;20053;-71
2022/07/06 00:56:51;;;;;;;4.72;1.10;;;14.70;99.90;;;;;;5037663;28;20441;-71
2022/07/06 00:59:17;;;;;;;3.13;0.95;;;14.70;99.90;;;;;;5037369;28;20049;-71
2022/07/06 01:01:43;;;;;;;6.43;0.90;;;14.60;99.90;;;;;;5037505;28;20045;-71
2022/07/06 01:04:08;;;;;;;3.08;1.10;;;14.70;99.90;;;;;;5037430;28;20110;-73
2022/07/06 01:06:34;;;;;;;3.63;1.27;;;14.70;99.90;;;;;;5037530;28;20059;-71
2022/07/06 01:09:00;;;;;;;2.33;1.17;;;14.70;99.90;;;;;;5042818;28;20132;-71
2022/07/06 01:11:26;;;;;;;5.18;1.48;;;14.70;99.90;;;;;;5054997;28;20090;-71
2022/07/06 01:13:52;;;;;;;3.05;1.52;;;14.70;99.90;;;;;;5037117;28;20454;-71
2022/07/06 01:16:18;;;;;;;4.18;1.40;;;14.70;99.90;;;;;;5037448;28;20461;-71
2022/07/06 01:18:43;;;;;;;4.80;1.48;;;14.70;99.90;;;;;;5053681;28;20056;-72
2022/07/06 01:21:12;;;;;;;1.80;1.00;;;14.70;99.90;;;;;;5037141;28;20114;-72
2022/07/06 01:23:42;;;;;;;1.77;0.95;;;14.70;99.90;;;;;;5037327;28;20521;-71
2022/07/06 01:26:10;;;;;;;2.45;1.20;;;14.70;99.90;;;;;;5054990;28;20049;-71
2022/07/06 01:28:36;;;;;;;3.17;1.20;;;14.70;99.90;;;;;;5037650;28;20064;-71
2022/07/06 01:31:01;;;;;;;8.32;1.30;;;14.70;99.90;;;;;;5054685;28;20038;-72
2022/07/06 01:33:27;;;;;;;2.85;1.23;;;14.60;99.90;;;;;;5037218;28;20052;-72
2022/07/06 01:35:53;;;;;;;5.93;1.48;;;14.60;99.90;;;;;;5037113;28;20064;-71
2022/07/06 01:38:18;;;;;;;3.08;1.05;;;14.60;99.90;;;;;;5037438;28;20034;-72
2022/07/06 01:40:44;;;;;;;2.10;0.98;;;14.60;99.90;;;;;;5054421;28;20041;-71
2022/07/06 01:43:09;;;;;;;8.02;1.55;;;14.60;99.90;;;;;;5037168;28;20457;-71
2022/07/06 01:45:35;;;;;;;2.00;1.13;;;14.60;99.90;;;;;;5037537;28;20045;-71
2022/07/06 01:48:04;;;;;;;1.92;1.40;;;14.60;99.90;;;;;;5036737;28;20044;-71
2022/07/06 01:50:30;;;;;;;5.93;1.00;;;14.50;99.90;;;;;;5037173;28;20497;-71
2022/07/06 01:52:55;;;;;;;5.07;1.80;;;14.50;99.90;;;;;;5054872;28;20139;-71
2022/07/06 01:55:21;;;;;;;2.55;1.05;;;14.50;99.90;;;;;;5071053;28;20123;-71
2022/07/06 01:57:46;;;;;;;4.80;1.17;;;14.50;99.90;;;;;;5077268;28;20045;-71
2022/07/06 02:00:12;;;;;;;2.33;1.20;;;14.50;99.90;;;;;;5060843;28;20350;-71
2022/07/06 02:02:38;;;;;;;6.00;0.93;;;14.50;99.90;;;;;;5060606;28;20052;-71
2022/07/06 02:05:04;;;;;;;5.78;1.38;;;14.50;99.90;;;;;;5061307;28;20454;-71
2022/07/06 02:07:29;;;;;;;3.40;1.25;;;14.50;99.90;;;;;;5044560;28;20059;-71
2022/07/06 02:09:55;;;;;;;2.65;1.30;;;14.50;99.90;;;;;;5060915;28;20048;-71
2022/07/06 02:12:20;;;;;;;3.05;1.15;;;14.50;99.90;;;;;;5061099;28;20051;-71
2022/07/06 02:14:47;;;;;;;6.68;1.20;;;14.50;99.90;;;;;;5060522;28;20040;-71
2022/07/06 02:17:12;;;;;;;4.03;1.30;;;14.50;99.90;;;;;;5077620;28;20056;-72
2022/07/06 02:19:38;;;;;;;1.55;1.08;;;14.50;99.90;;;;;;5060369;28;20048;-71
2022/07/06 02:22:03;;;;;;;4.38;1.13;;;14.50;99.90;;;;;;5060936;28;20048;-72
2022/07/06 02:24:29;;;;;;;2.55;1.13;;;14.50;99.90;;;;;;5060889;28;20429;-72
2022/07/06 02:26:55;;;;;;;3.47;1.20;;;14.50;99.90;;;;;;5060947;28;20109;-71
2022/07/06 02:29:21;;;;;;;2.67;1.05;;;14.50;99.90;;;;;;5060476;28;20471;-72
2022/07/06 02:31:47;;;;;;;3.67;0.85;;;14.50;99.90;;;;;;5060235;28;20346;-71
2022/07/06 02:34:12;;;;;;;3.97;1.23;;;14.50;99.90;;;;;;5060069;28;20102;-71
2022/07/06 02:36:38;;;;;;;2.75;1.20;;;14.40;99.90;;;;;;5078184;28;20045;-71
2022/07/06 02:39:03;;;;;;;1.50;1.00;;;14.30;99.90;;;;;;5043649;28;20040;-71
2022/07/06 02:41:29;;;;;;;6.90;1.15;;;14.40;99.90;;;;;;5077764;28;20106;-72
2022/07/06 02:43:54;;;;;;;1.55;1.00;;;14.40;99.90;;;;;;5060286;28;20051;-71
2022/07/06 02:46:20;;;;;;;4.07;1.65;;;14.40;99.90;;;;;;5059856;28;20044;-72
2022/07/06 02:48:46;;;;;;;5.53;1.17;;;14.40;99.90;;;;;;5076967;28;20056;-72
2022/07/06 02:51:11;;;;;;;3.97;1.13;;;14.30;99.90;;;;;;5077221;28;20101;-71
2022/07/06 02:53:37;;;;;;;3.08;1.15;;;14.40;99.90;;;;;;5060182;28;20067;-72
2022/07/06 02:56:03;;;;;;;2.75;1.40;;;14.40;99.90;;;;;;5059747;28;20208;-71
2022/07/06 02:58:28;;;;;;;2.40;1.10;;;14.30;99.90;;;;;;5059952;28;20062;-71
2022/07/06 03:00:54;;;;;;;2.88;0.93;;;14.20;99.90;;;;;;5077499;28;20047;-71
2022/07/06 03:03:19;;;;;;;4.20;1.60;;;14.30;99.90;;;;;;5073767;28;20114;-72
2022/07/06 03:05:46;;;;;;;4.05;1.20;;;14.20;99.90;;;;;;5079128;28;20482;-71
2022/07/06 03:08:12;;;;;;;3.70;1.17;;;14.10;99.90;;;;;;5079315;28;20052;-71
2022/07/06 03:10:37;;;;;;;2.35;1.00;;;14.00;99.90;;;;;;5097754;28;20055;-71
2022/07/06 03:13:03;;;;;;;4.13;1.50;;;14.00;99.90;;;;;;5097365;28;20087;-71
2022/07/06 03:15:29;;;;;;;3.00;1.00;;;13.90;99.90;;;;;;5079633;28;20040;-71
2022/07/06 03:17:54;;;;;;;5.93;1.88;;;13.80;99.90;;;;;;5074721;28;20066;-72
2022/07/06 03:20:20;;;;;;;3.33;1.10;;;13.80;99.90;;;;;;5076847;28;20083;-71
2022/07/06 03:22:45;;;;;;;4.30;1.50;;;13.70;99.90;;;;;;5076972;28;20052;-71
2022/07/06 03:25:11;;;;;;;5.25;1.35;;;13.70;99.90;;;;;;5059641;28;20127;-71
2022/07/06 03:27:36;;;;;;;3.35;1.50;;;13.70;99.90;;;;;;5059738;28;20083;-71
2022/07/06 03:30:03;;;;;;;5.68;1.25;;;13.60;99.90;;;;;;5077737;28;20492;-71
2022/07/06 03:32:29;;;;;;;3.90;1.48;;;13.60;99.90;;;;;;5058667;28;20044;-71
2022/07/06 03:34:54;;;;;;;4.68;1.35;;;13.50;99.90;;;;;;5077080;28;20099;-70
2022/07/06 03:37:20;;;;;;;1.80;0.85;;;13.60;99.90;;;;;;5076587;28;20072;-71
2022/07/06 03:39:45;;;;;;;8.35;1.60;;;13.50;99.90;;;;;;5076708;28;20126;-71
2022/07/06 03:42:11;;;;;;;5.07;1.08;;;13.30;99.90;;;;;;5058845;28;20368;-70
2022/07/06 03:44:36;;;;;;;3.15;1.08;;;13.30;99.90;;;;;;5076632;28;20048;-71
2022/07/06 03:47:02;;;;;;;3.17;1.63;;;13.20;99.90;;;;;;5063854;28;20129;-71
2022/07/06 03:49:28;;;;;;;5.80;1.52;;;13.20;99.90;;;;;;5079654;28;20054;-71
2022/07/06 03:51:54;;;;;;;4.95;1.30;;;13.20;99.90;;;;;;5096512;28;20197;-71
2022/07/06 03:54:20;;;;;;;7.15;1.92;;;13.10;99.90;;;;;;5078907;28;20119;-71
2022/07/06 03:56:45;;;;;;;5.60;1.40;;;13.00;99.90;;;;;;5096252;28;20075;-72
2022/07/06 03:59:11;;;;;;;4.75;1.10;;;13.00;99.90;;;;;;5098729;28;20044;-71
2022/07/06 04:01:36;;;;;;;3.40;1.30;;;13.00;99.90;;;;;;5072248;28;20053;-71
2022/07/06 04:04:02;;;;;;;4.18;1.40;;;12.90;99.90;;;;;;5059436;28;20464;-71
2022/07/06 04:06:28;;;;;;;3.05;1.33;;;12.90;99.90;;;;;;5058271;28;20117;-71
2022/07/06 04:08:53;;;;;;;2.30;1.00;;;12.90;99.90;;;;;;5070138;28;20045;-70
2022/07/06 04:11:19;;;;;;;2.58;1.40;;;12.90;99.90;;;;;;5058484;28;20050;-71
2022/07/06 04:13:45;;;;;;;3.10;1.13;;;12.90;99.90;;;;;;5066979;28;20078;-71
2022/07/06 04:16:10;;;;;;;2.50;1.33;;;13.00;99.90;;;;;;5078138;28;20047;-70
2022/07/06 04:18:36;;;;;;;6.55;2.05;;;12.90;99.90;;;;;;5095598;28;20050;-71
2022/07/06 04:21:02;;;;;;;5.38;1.20;;;12.90;99.90;;;;;;5096411;28;20036;-71
2022/07/06 04:23:28;;;;;;;3.92;1.40;;;12.90;99.90;;;;;;5096242;28;20112;-71
2022/07/06 04:25:53;;;;;;;6.57;1.58;;;12.90;99.90;;;;;;5077949;28;20464;-72
2022/07/06 04:28:19;;;;;;;3.00;1.38;;;12.90;99.90;;;;;;5096104;28;20040;-71
2022/07/06 04:30:45;;;;;;;3.75;1.30;;;13.00;99.90;;;;;;5095855;28;20047;-70
2022/07/06 04:33:10;;;;;;;6.18;1.50;;;13.00;99.90;;;;;;5076675;28;20048;-71
2022/07/06 04:35:36;;;;;;;1.98;0.85;;;13.10;99.90;;;;;;5075465;28;20055;-71
2022/07/06 04:38:02;;;;;;;2.95;1.13;;;13.10;99.90;;;;;;5075101;28;20032;-71
2022/07/06 04:40:27;;;;;;;5.03;1.35;;;13.20;99.90;;;;;;5057824;28;20144;-71
2022/07/06 04:42:53;;;;;;;4.35;1.67;;;13.40;99.90;;;;;;5057670;28;20453;-71
2022/07/06 04:45:18;;;;;;;4.45;1.30;;;13.60;99.90;;;;;;5057735;28;20368;-72
2022/07/06 04:47:47;;;;;;;4.00;1.42;;;13.90;99.90;;;;;;5083106;28;20040;-72
2022/07/06 04:50:13;;;;;;;7.38;1.50;;;14.10;99.90;;;;;;5057333;28;20044;-72
2022/07/06 04:52:38;;;;;;;3.97;1.23;;;14.30;99.90;;;;;;5057918;28;20044;-71
2022/07/06 04:55:05;;;;;;;3.40;1.05;;;14.40;99.90;;;;;;5077846;28;20055;-72
2022/07/06 04:57:32;;;;;;;2.53;1.00;;;14.50;99.90;;;;;;5095011;28;20452;-72
2022/07/06 04:59:58;;;;;;;4.07;0.90;;;14.60;99.90;;;;;;5077680;28;20123;-72
2022/07/06 05:02:24;;;;;;;2.90;1.17;;;14.60;99.90;;;;;;5077612;28;20090;-70
2022/07/06 05:04:50;;;;;;;6.25;0.80;;;14.70;99.90;;;;;;5057385;28;20110;-71
2022/07/06 05:07:15;;;;;;;4.18;0.80;;;14.70;99.90;;;;;;5057648;28;20075;-71
2022/07/06 05:09:41;;;;;;;5.30;1.27;;;14.70;99.90;;;;;;5075090;28;20041;-71
2022/07/06 05:12:07;;;;;;;7.07;1.45;;;14.70;99.90;;;;;;5075289;28;20048;-71
2022/07/06 05:14:33;;;;;;;2.65;1.02;;;14.70;99.90;;;;;;5057336;28;20040;-72
2022/07/06 05:16:59;;;;;;;3.35;0.98;;;14.70;99.90;;;;;;5057437;28;20115;-71
2022/07/06 05:19:24;;;;;;;4.55;1.17;;;14.80;99.90;;;;;;5074837;28;20084;-71
2022/07/06 05:21:50;;;;;;;7.55;1.25;;;14.80;99.90;;;;;;5057597;28;20076;-71
2022/07/06 05:24:15;;;;;;;4.38;1.33;;;14.90;99.90;;;;;;5074927;28;20078;-71
2022/07/06 05:26:42;;;;;;;4.07;1.10;;;15.00;99.90;;;;;;5075511;28;20048;-71
2022/07/06 05:29:07;;;;;;;2.55;1.02;;;15.10;99.90;;;;;;5058382;28;20121;-71
2022/07/06 05:31:33;;;;;;;4.30;1.02;;;15.20;99.90;;;;;;5056841;28;20188;-69
2022/07/06 05:33:58;;;;;;;6.80;1.10;;;15.20;99.90;;;;;;5064627;28;20084;-69
2022/07/06 05:36:24;;;;;;;2.88;0.90;;;15.30;99.90;;;;;;5068677;28;20047;-69
2022/07/06 05:38:49;;;;;;;2.72;1.00;;;15.40;99.90;;;;;;5057126;28;20368;-69
2022/07/06 05:41:15;;;;;;;2.10;0.50;;;15.40;99.90;;;;;;5074727;28;20052;-69
2022/07/06 05:43:41;;;;;;;7.18;1.52;;;15.40;99.90;;;;;;5072934;28;20036;-71
2022/07/06 05:46:06;;;;;;;9.40;1.42;;;15.50;99.90;;;;;;5066833;28;20113;-69
2022/07/06 05:51:16;;;;;;;4.47;1.50;;;15.60;99.90;;;;;;5093241;28;20040;-69
2022/07/06 05:53:42;;;;;;;4.00;1.00;;;15.60;99.90;;;;;;5077192;28;20048;-69
2022/07/06 05:56:07;;;;;;;4.38;1.17;;;15.50;99.90;;;;;;5076869;28;20047;-68
2022/07/06 05:58:34;;;;;;;4.03;0.73;;;15.50;99.90;;;;;;5071599;28;20051;-69
2022/07/06 06:00:59;;;;;;;2.67;0.70;;;15.30;99.90;;;;;;5056631;28;20443;-70
2022/07/06 06:03:25;;;;;;;3.15;1.50;;;15.30;99.90;;;;;;5064278;28;20048;-71
2022/07/06 06:05:51;;;;;;;1.70;0.68;;;15.20;99.90;;;;;;5085877;28;20087;-70
2022/07/06 06:08:16;;;;;;;5.03;1.15;;;15.30;99.90;;;;;;5056867;28;20041;-71
2022/07/06 06:10:42;;;;;;;2.80;0.70;;;15.50;99.90;;;;;;5057699;28;20044;-71
2022/07/06 06:13:08;;;;;;;2.85;0.70;;;15.70;99.90;;;;;;5068306;28;20055;-71
2022/07/06 06:15:34;;;;;;;1.67;0.50;;;15.90;99.90;;;;;;5072744;28;20071;-72
2022/07/06 06:18:00;;;;;;;3.83;0.88;;;16.10;99.90;;;;;;5063235;28;20435;-70
2022/07/06 06:20:26;;;;;;;5.30;0.88;;;16.40;99.90;;;;;;5072242;28;20198;-71
2022/07/06 06:22:54;;;;;;;5.00;0.80;;;16.40;99.90;;;;;;5057801;28;20182;-72
2022/07/06 06:25:27;;;;;;;11.45;1.42;;;16.40;99.90;;;;;;5065210;28;20135;-72
2022/07/06 06:27:52;;;;;;;4.32;0.90;;;16.30;99.90;;;;;;5067991;28;20074;-73
2022/07/06 06:30:18;;;;;;;3.55;0.95;;;16.20;99.90;;;;;;5074510;28;20071;-73
2022/07/06 06:32:43;;;;;;;5.80;1.10;;;16.10;99.90;;;;;;5075719;28;20464;-72
2022/07/06 06:35:09;;;;;;;1.65;0.80;;;16.00;99.90;;;;;;5077514;28;20037;-73
2022/07/06 06:37:35;;;;;;;2.92;1.15;;;16.00;99.90;;;;;;5099675;28;20044;-72
2022/07/06 06:40:01;;;;;;;5.13;1.10;;;15.90;99.90;;;;;;5097058;28;20135;-73
2022/07/06 06:42:26;;;;;;;1.67;0.88;;;15.80;99.90;;;;;;5118075;28;20345;-72
2022/07/06 06:44:52;;;;;;;4.95;0.80;;;15.70;99.90;;;;;;5100371;28;20051;-72
2022/07/06 06:47:19;;;;;;;1.67;0.50;;;15.60;99.90;;;;;;5099451;28;20130;-72
2022/07/06 06:49:44;;;;;;;2.63;0.70;;;15.60;99.90;;;;;;5097628;28;20048;-73
2022/07/06 06:52:10;;;;;;;1.65;0.50;;;15.40;99.90;;;;;;5079955;28;20063;-72
2022/07/06 06:54:35;;;;;;;2.72;0.70;;;15.50;99.90;;;;;;5079036;28;20108;-73
2022/07/06 06:57:01;;;;;;;0.57;0.57;;;15.30;99.90;;;;;;5079541;28;20388;-71
2022/07/06 06:59:27;;;;;;;1.45;0.85;;;15.30;99.90;;;;;;5079965;28;20453;-72
2022/07/06 07:01:52;;;;;;;2.83;1.02;;;15.40;99.90;;;;;;5080186;28;20468;-73
2022/07/06 07:04:18;;;;;;;2.90;0.90;;;15.50;99.90;;;;;;5066800;28;20058;-72
2022/07/06 07:06:43;;;;;;;2.50;0.98;;;15.70;99.90;;;;;;5064923;28;20036;-72
2022/07/06 07:09:09;;;;;;;4.72;0.93;;;15.90;99.90;;;;;;5115478;28;20108;-73
2022/07/06 07:11:34;;;;;;;3.92;0.82;;;16.40;99.90;;;;;;5089145;28;20367;-72
2022/07/06 07:14:01;;;;;;;4.15;0.82;;;16.60;99.90;;;;;;5100292;28;20515;-72
2022/07/06 07:16:26;;;;;;;2.42;0.98;;;16.70;99.90;;;;;;5100030;28;20127;-70
2022/07/06 07:18:52;;;;;;;3.72;0.88;;;17.00;99.90;;;;;;5087222;28;20115;-71
2022/07/06 07:21:18;;;;;;;3.60;1.25;;;18.10;99.90;;;;;;5093580;28;20043;-71
2022/07/06 07:23:43;;;;;;;3.83;0.93;;;19.70;99.90;;;;;;5095309;28;20040;-71
2022/07/06 07:26:09;;;;;;;5.18;0.80;;;21.50;99.90;;;;;;5096351;28;20047;-72
2022/07/06 07:28:35;;;;;;;4.55;1.15;;;22.80;99.90;;;;;;5061210;28;20044;-70
2022/07/06 07:31:00;;;;;;;2.63;0.60;;;24.10;99.90;;;;;;5070634;28;20048;-70
2022/07/06 07:33:26;;;;;;;2.75;0.77;;;25.30;99.90;;;;;;5074102;28;20055;-70
2022/07/06 07:35:51;;;;;;;4.45;0.80;;;26.20;99.20;;;;;;5062903;28;20053;-70
2022/07/06 07:38:17;;;;;;;4.30;0.98;;;26.00;96.90;;;;;;5095060;28;20482;-70
2022/07/06 07:40:42;;;;;;;3.13;0.70;;;25.20;95.20;;;;;;5064085;28;20476;-70
2022/07/06 07:43:08;;;;;;;2.58;0.85;;;24.00;96.00;;;;;;5059181;28;20114;-70
2022/07/06 07:45:34;;;;;;;4.22;0.98;;;22.70;96.40;;;;;;5076351;28;20055;-70
2022/07/06 07:47:59;;;;;;;3.50;0.52;;;21.90;98.40;;;;;;5058764;28;20101;-70
2022/07/06 07:50:26;;;;;;;2.60;0.80;;;21.40;98.70;;;;;;5068647;28;20369;-70
2022/07/06 07:52:52;;;;;;;3.45;0.63;;;20.90;99.20;;;;;;5095888;28;20056;-70
2022/07/06 07:55:18;;;;;;;2.95;1.25;;;21.20;98.10;;;;;;5078605;28;20442;-70
2022/07/06 07:57:43;;;;;;;1.05;0.50;;;21.00;99.10;;;;;;5072080;28;20132;-70
2022/07/06 08:00:10;;;;;;;2.83;0.70;;;20.60;99.80;;;;;;5076389;28;20426;-70
2022/07/06 08:02:35;;;;;;;3.42;0.55;;;20.80;99.20;;;;;;5060884;28;20377;-70
2022/07/06 08:05:01;;;;;;;7.28;0.65;;;21.50;98.90;;;;;;5076111;28;20044;-69
2022/07/06 08:07:27;;;;;;;5.55;0.65;;;22.20;98.20;;;;;;5068815;28;20155;-69
2022/07/06 08:09:52;;;;;;;4.80;0.85;;;22.90;96.90;;;;;;5059222;28;20489;-70
2022/07/06 08:12:18;;;;;;;4.85;0.95;;;23.00;96.50;;;;;;5072634;28;20080;-70
2022/07/06 08:14:43;;;;;;;2.38;0.77;;;23.00;96.90;;;;;;5075059;28;20043;-70
2022/07/06 08:17:09;;;;;;;3.67;0.65;;;23.00;97.00;;;;;;5058466;28;20047;-71
2022/07/06 08:19:34;;;;;;;3.17;0.60;;;22.70;97.70;;;;;;5058027;28;20453;-71
2022/07/06 08:22:00;;;;;;;2.03;0.70;;;22.00;96.90;;;;;;5058223;28;20401;-72
2022/07/06 08:24:26;;;;;;;2.72;0.73;;;21.30;96.90;;;;;;5058243;28;20041;-73
2022/07/06 08:26:51;;;;;;;3.38;0.60;;;21.10;98.20;;;;;;5075830;28;20041;-71
2022/07/06 08:29:17;;;;;;;5.38;0.77;;;20.90;98.20;;;;;;5075829;28;20041;-73
2022/07/06 08:31:42;;;;;;;1.05;0.40;;;21.30;99.20;;;;;;5058440;28;20054;-72
2022/07/06 08:34:08;;;;;;;2.45;0.52;;;21.80;97.60;;;;;;5071204;28;20090;-72
2022/07/06 08:36:33;;;;;;;2.78;0.57;;;22.20;97.70;;;;;;5078588;28;20357;-72
2022/07/06 08:38:59;;;;;;;4.50;0.50;;;22.70;96.80;;;;;;5077759;28;20131;-72
2022/07/06 08:41:28;;;;;;;4.35;0.52;;;22.90;94.70;;;;;;5077708;28;20047;-72
2022/07/06 08:43:54;;;;;;;2.13;0.50;;;23.20;95.30;;;;;;5078054;28;20052;-72
2022/07/06 08:46:20;;;;;;;1.77;0.55;;;23.40;95.10;;;;;;5077508;28;20451;-72
2022/07/06 08:48:46;;;;;;;1.50;0.43;;;23.20;93.70;;;;;;5073465;28;20472;-72
2022/07/06 08:51:14;;;;;;;1.75;0.45;;;22.90;93.90;;;;;;5075072;28;20067;-72
2022/07/06 08:53:42;;;;;;;0.73;0.47;;;22.70;94.70;;;;;;5057610;28;20136;-72
2022/07/06 08:56:08;;;;;;;3.17;0.40;;;22.60;93.10;;;;;;5057441;28;20513;-72
2022/07/06 08:58:34;;;;;;;1.83;0.40;;;22.60;93.80;;;;;;5057289;28;20045;-72
2022/07/06 09:01:00;;;;;;;0.50;0.20;;;22.70;93.60;;;;;;5075236;28;20071;-72
2022/07/06 09:03:26;;;;;;;1.98;0.63;;;22.70;93.60;;;;;;5065136;28;20416;-72
2022/07/06 09:05:52;;;;;;;1.42;0.47;;;22.90;93.70;;;;;;5077505;28;20135;-72
2022/07/06 09:08:19;;;;;;;2.63;0.52;;;22.90;93.30;;;;;;5077176;28;20135;-72
2022/07/06 09:10:44;;;;;;;1.48;0.45;;;23.20;93.20;;;;;;5077879;28;20048;-72
2022/07/06 09:13:10;;;;;;;3.47;0.60;;;23.50;92.70;;;;;;5077881;28;20104;-72
2022/07/06 09:15:39;;;;;;;3.17;0.50;;;23.60;93.30;;;;;;5077159;28;20376;-72
2022/07/06 09:18:06;;;;;;;3.03;0.60;;;23.80;93.70;;;;;;5073167;28;20123;-72
2022/07/06 09:20:32;;;;;;;4.47;0.57;;;23.80;92.90;;;;;;5070958;28;20058;-72
2022/07/06 09:23:03;;;;;;;1.35;0.50;;;23.40;92.90;;;;;;5095154;28;20376;-72
2022/07/06 09:25:29;;;;;;;4.55;0.52;;;23.00;94.20;;;;;;5077439;28;20044;-72
2022/07/06 09:27:57;;;;;;;4.47;0.55;;;22.60;94.20;;;;;;5077334;28;20364;-72
2022/07/06 09:30:24;;;;;;;2.88;0.55;;;22.10;94.70;;;;;;5077309;28;20051;-72
2022/07/06 09:32:52;;;;;;;5.55;0.50;;;21.70;94.70;;;;;;5092165;28;20040;-72
2022/07/06 09:35:26;;;;;;;2.13;0.70;;;21.30;94.90;;;;;;5057069;28;20048;-73
2022/07/06 09:38:02;;;;;;;1.83;0.50;;;21.00;95.70;;;;;;5074613;28;20041;-72
2022/07/06 09:40:31;;;;;;;3.00;0.40;;;20.80;96.30;;;;;;5057118;28;20048;-72
2022/07/06 09:43:21;;;;;;;1.10;0.52;;;20.50;96.00;;;;;;5057454;28;20548;-72
2022/07/06 09:45:54;;;;;;;4.40;1.17;;;20.40;96.30;;;;;;5056781;28;20052;-72
2022/07/06 09:48:21;;;;;;;1.17;0.40;;;20.30;96.50;;;;;;5074482;28;20108;-72
2022/07/06 09:50:53;;;;;;;2.72;0.60;;;20.40;96.80;;;;;;5057834;28;20060;-72
2022/07/06 09:53:20;;;;;;;2.22;0.52;;;21.00;97.50;;;;;;5057205;28;20461;-72
2022/07/06 09:55:47;;;;;;;1.20;0.40;;;21.60;97.40;;;;;;5074738;28;20052;-72
2022/07/06 09:58:14;;;;;;;1.67;0.60;;;21.90;95.80;;;;;;5065816;28;20048;-73
2022/07/06 10:00:41;;;;;;;1.70;0.73;;;21.90;95.40;;;;;;5076383;28;20055;-72
2022/07/06 10:03:08;;;;;;;3.25;0.63;;;21.90;95.40;;;;;;5077466;28;20456;-72
2022/07/06 10:05:36;;;;;;;1.00;0.50;;;22.00;96.30;;;;;;5076998;28;20040;-72
2022/07/06 10:08:05;;;;;;;1.70;0.50;;;22.10;95.60;;;;;;5077322;28;20127;-72
2022/07/06 10:10:32;;;;;;;2.40;0.60;;;22.40;96.20;;;;;;5076948;28;20051;-72
2022/07/06 10:12:59;;;;;;;4.55;0.82;;;22.70;96.00;;;;;;5077059;28;20055;-72
2022/07/06 10:15:31;;;;;;;0.65;0.40;;;22.90;95.60;;;;;;5094526;28;20044;-72
2022/07/06 10:17:58;;;;;;;3.28;0.55;;;22.90;94.60;;;;;;5060449;28;20105;-72
2022/07/06 10:20:28;;;;;;;2.28;0.82;;;22.60;94.80;;;;;;5060638;28;20086;-72
2022/07/06 10:22:57;;;;;;;2.40;0.50;;;22.50;95.40;;;;;;5060312;28;20048;-72
2022/07/06 10:25:24;;;;;;;1.23;0.50;;;22.80;95.60;;;;;;5077873;28;20040;-72
2022/07/06 10:27:52;;;;;;;2.35;0.52;;;22.90;96.30;;;;;;5045340;28;20044;-72
2022/07/06 10:30:18;;;;;;;2.35;0.60;;;23.30;95.70;;;;;;5060777;28;20113;-72
2022/07/06 10:32:46;;;;;;;1.92;0.60;;;23.50;95.40;;;;;;5060674;28;20388;-72
2022/07/06 10:35:13;;;;;;;1.15;0.52;;;23.40;94.00;;;;;;5059912;28;20048;-73
2022/07/06 10:37:39;;;;;;;2.60;0.68;;;23.40;94.60;;;;;;5077809;28;20052;-72
2022/07/06 10:42:56;;;;;;;5.05;0.60;;;23.20;94.10;;;;;;5077487;28;20508;-72
2022/07/06 10:45:27;;;;;;;1.65;0.40;;;23.60;94.50;;;;;;5077728;28;20044;-72
2022/07/06 10:48:11;;;;;;;1.40;0.52;;;23.50;93.70;;;;;;5060110;28;20194;-72
2022/07/06 10:50:50;;;;;;;6.15;0.50;;;23.90;93.40;;;;;;5077465;28;20049;-73
2022/07/06 10:53:20;;;;;;;2.58;0.68;;;23.80;92.90;;;;;;5058341;28;20131;-72
2022/07/06 10:55:47;;;;;;;6.28;0.98;;;23.50;93.80;;;;;;5057748;28;20052;-72
2022/07/06 10:58:14;;;;;;;2.58;0.55;;;23.30;93.10;;;;;;5039721;28;20036;-72
2022/07/06 11:00:54;;;;;;;4.15;0.50;;;23.00;92.50;;;;;;5057388;28;20055;-72
2022/07/06 11:03:48;;;;;;;3.05;0.65;;;23.10;93.30;;;;;;5058283;28;20032;-72
2022/07/06 11:06:15;;;;;;;1.27;0.50;;;23.30;92.60;;;;;;5077430;28;20120;-72
2022/07/06 11:09:10;;;;;;;3.15;0.60;;;23.60;92.90;;;;;;5059322;28;20044;-72
2022/07/06 11:11:36;;;;;;;4.30;0.60;;;23.40;92.40;;;;;;5077300;28;20059;-72
2022/07/06 11:14:06;;;;;;;0.90;0.50;;;23.00;92.40;;;;;;5060114;28;20074;-72
2022/07/06 11:16:37;;;;;;;2.83;0.55;;;22.70;92.90;;;;;;5076945;28;20052;-72
2022/07/06 11:19:09;;;;;;;2.38;0.57;;;22.70;94.50;;;;;;5058784;28;20052;-72
2022/07/06 11:21:41;;;;;;;3.97;0.90;;;22.80;92.80;;;;;;5076964;28;20050;-72
2022/07/06 11:24:09;;;;;;;3.35;0.50;;;23.10;92.80;;;;;;5077109;28;20049;-71
2022/07/06 11:26:36;;;;;;;2.72;0.50;;;23.40;92.80;;;;;;5076610;28;20498;-72
2022/07/06 11:29:05;;;;;;;3.90;0.73;;;23.50;92.40;;;;;;5058937;28;20073;-72
2022/07/06 11:31:43;;;;;;;7.38;0.80;;;23.80;92.60;;;;;;5055998;28;20040;-72
2022/07/06 11:34:10;;;;;;;2.25;0.57;;;23.90;91.70;;;;;;5038906;28;20053;-72
2022/07/06 11:36:37;;;;;;;1.67;0.60;;;23.50;90.70;;;;;;5057002;28;20414;-72
2022/07/06 11:39:05;;;;;;;3.60;0.63;;;23.40;92.00;;;;;;5039442;28;20067;-72
2022/07/06 11:41:31;;;;;;;1.52;0.70;;;23.40;92.70;;;;;;5039556;28;20258;-72
2022/07/06 11:43:57;;;;;;;0.70;0.50;;;23.40;93.30;;;;;;5038832;28;20163;-72
2022/07/06 11:46:26;;;;;;;4.80;0.70;;;23.20;92.80;;;;;;5059901;28;20079;-72
2022/07/06 11:49:14;;;;;;;2.15;0.70;;;23.00;93.20;;;;;;5059374;28;20052;-72
2022/07/06 11:51:41;;;;;;;10.43;0.98;;;22.70;92.90;;;;;;5051106;28;20495;-72
2022/07/06 11:54:15;;;;;;;4.15;0.60;;;22.70;93.20;;;;;;5039164;28;20044;-72
2022/07/06 11:56:59;;;;;;;2.45;0.63;;;23.00;93.30;;;;;;5038825;28;20055;-72
2022/07/06 11:59:27;;;;;;;2.50;0.80;;;23.20;93.70;;;;;;5038851;28;20461;-72
2022/07/06 12:01:59;;;;;;;3.85;0.70;;;23.60;93.80;;;;;;5039291;28;20052;-72
2022/07/06 12:04:25;;;;;;;1.95;0.60;;;23.90;93.40;;;;;;5022444;28;20056;-72
2022/07/06 12:06:51;;;;;;;1.90;1.05;;;24.30;93.30;;;;;;5038796;28;20049;-72
2022/07/06 12:09:17;;;;;;;2.47;0.85;;;24.10;92.90;;;;;;5004698;28;20494;-71
2022/07/06 12:11:46;;;;;;;2.53;0.52;;;23.60;91.30;;;;;;5038218;28;20103;-72
2022/07/06 12:14:20;;;;;;;1.23;0.70;;;23.80;92.40;;;;;;5038467;28;20052;-72
2022/07/06 12:16:50;;;;;;;2.35;0.60;;;24.00;92.70;;;;;;5066979;28;20377;-72
2022/07/06 12:19:16;;;;;;;2.10;0.85;;;24.10;92.00;;;;;;5054092;28;20045;-72
2022/07/06 12:21:47;;;;;;;2.85;0.50;;;24.10;91.90;;;;;;5037993;28;20053;-72
2022/07/06 12:24:22;;;;;;;1.05;0.63;;;24.30;92.20;;;;;;5038785;28;20465;-72
2022/07/06 12:26:49;;;;;;;1.95;0.70;;;24.50;91.90;;;;;;5055741;28;20469;-72
2022/07/06 12:29:16;;;;;;;1.42;0.40;;;24.60;91.50;;;;;;5038657;28;20131;-72
2022/07/06 12:31:53;;;;;;;2.05;0.60;;;24.70;88.60;;;;;;5037745;28;20044;-72
2022/07/06 12:34:24;;;;;;;6.10;0.75;;;24.70;91.10;;;;;;5038048;28;20088;-72
2022/07/06 12:36:55;;;;;;;3.17;0.43;;;24.90;91.40;;;;;;5037795;28;20052;-72
2022/07/06 12:39:23;;;;;;;1.42;0.70;;;24.80;91.20;;;;;;5038022;28;20400;-72
2022/07/06 12:41:51;;;;;;;1.67;0.40;;;24.90;91.70;;;;;;5055707;28;20049;-72
2022/07/06 12:44:19;;;;;;;1.17;0.60;;;25.00;91.60;;;;;;5055576;28;20047;-73
2022/07/06 12:46:45;;;;;;;0.93;0.43;;;25.00;91.80;;;;;;5037743;28;20084;-72
2022/07/06 12:49:20;;;;;;;2.25;0.73;;;25.00;90.20;;;;;;5055092;28;20463;-72
2022/07/06 12:52:12;;;;;;;0.85;0.40;;;25.00;91.20;;;;;;5060905;28;20377;-72